Time;durP1;ratioP1;P1;durP2;ratioP2;P2;SDS_P1;SDS_P2;PMS_P1;PMS_P2;Temp;Humidity;BMP_temperature;BMP_pressure;BME280_temperature;BME280_humidity;BME280_pressure;Samples;Min_cycle;Max_cycle;Signal;HPM_P1;HPM_P2
2023/06/24 00:02:09;;;;;;;5.95;5.00;;;;;;;17.27;79.90;102473.66;4975106;28;20061;-81
2023/06/24 00:04:36;;;;;;;5.82;5.38;;;;;;;17.28;79.10;102477.84;4992430;28;20142;-81
2023/06/24 00:07:03;;;;;;;5.28;4.88;;;;;;;17.27;80.39;102473.66;4975115;28;20084;-81
2023/06/24 00:09:30;;;;;;;5.20;4.90;;;;;;;17.22;79.93;102471.53;4991641;28;20138;-81
2023/06/24 00:12:00;;;;;;;5.72;5.22;;;;;;;17.19;79.57;102475.13;4992705;28;20051;-80
2023/06/24 00:14:28;;;;;;;5.85;5.25;;;;;;;17.17;80.55;102474.81;4992611;28;20074;-80
2023/06/24 00:16:56;;;;;;;5.38;4.97;;;;;;;17.17;80.33;102480.22;4992760;28;20487;-81
2023/06/24 00:19:24;;;;;;;7.57;5.45;;;;;;;17.14;80.93;102475.72;4992031;28;20055;-81
2023/06/24 00:21:52;;;;;;;10.05;5.25;;;;;;;17.12;80.67;102478.09;4992084;28;20118;-81
2023/06/24 00:24:21;;;;;;;5.85;5.45;;;;;;;17.11;81.25;102490.06;4992260;28;20047;-81
2023/06/24 00:26:47;;;;;;;5.68;4.85;;;;;;;17.07;80.76;102481.38;4992329;28;20050;-82
2023/06/24 00:29:15;;;;;;;5.45;4.93;;;;;;;17.05;81.32;102478.38;4992553;28;20043;-81
2023/06/24 00:31:41;;;;;;;5.53;5.18;;;;;;;17.01;81.42;102497.31;4991977;28;20047;-81
2023/06/24 00:34:08;;;;;;;5.68;5.07;;;;;;;16.88;81.78;102486.66;4992823;28;20118;-81
2023/06/24 00:36:38;;;;;;;6.82;5.70;;;;;;;16.85;81.47;102484.09;4990057;28;20047;-81
2023/06/24 00:39:05;;;;;;;6.07;5.20;;;;;;;16.82;81.20;102480.34;4991238;28;20047;-81
2023/06/24 00:41:34;;;;;;;6.75;5.75;;;;;;;16.79;81.38;102483.19;4991804;28;20047;-81
2023/06/24 00:44:01;;;;;;;7.75;5.88;;;;;;;16.74;81.72;102479.13;4992228;28;20128;-81
2023/06/24 00:46:29;;;;;;;5.68;5.22;;;;;;;16.70;82.56;102480.44;4991751;28;20133;-81
2023/06/24 00:48:56;;;;;;;6.68;6.00;;;;;;;16.71;82.39;102488.06;4992339;28;20101;-81
2023/06/24 00:51:26;;;;;;;6.68;6.15;;;;;;;16.71;82.31;102487.31;4989710;28;20058;-81
2023/06/24 00:53:53;;;;;;;6.18;5.60;;;;;;;16.66;82.42;102485.94;4992502;28;20053;-80
2023/06/24 00:56:25;;;;;;;8.38;5.35;;;;;;;16.66;82.69;102485.94;4973990;28;20047;-80
2023/06/24 00:58:52;;;;;;;9.00;5.88;;;;;;;16.63;83.02;102486.78;4974866;28;20051;-81
2023/06/24 01:01:19;;;;;;;7.03;6.43;;;;;;;16.61;83.10;102489.16;4991588;28;20114;-80
2023/06/24 01:03:46;;;;;;;6.60;6.05;;;;;;;16.58;83.49;102484.66;4992083;28;20042;-80
2023/06/24 01:06:13;;;;;;;7.57;5.63;;;;;;;16.57;83.14;102475.09;4991491;28;20556;-80
2023/06/24 01:08:40;;;;;;;6.10;5.70;;;;;;;16.50;83.66;102465.34;4991177;28;20047;-80
2023/06/24 01:11:07;;;;;;;12.23;5.82;;;;;;;16.50;83.96;102464.59;4991859;28;20054;-80
2023/06/24 01:13:34;;;;;;;6.53;5.93;;;;;;;16.46;84.22;102464.72;4994871;28;20186;-81
2023/06/24 01:16:10;;;;;;;5.88;5.35;;;;;;;16.47;83.83;102470.84;4993992;28;20498;-82
2023/06/24 01:18:46;;;;;;;6.40;5.80;;;;;;;16.45;84.46;102470.53;4994845;28;20121;-81
2023/06/24 01:21:50;;;;;;;6.50;6.00;;;;;;;16.43;84.82;102467.53;4995166;28;20102;-81
2023/06/24 01:24:55;;;;;;;6.35;5.80;;;;;;;16.37;84.30;102470.06;4995698;28;20043;-81
2023/06/24 01:27:38;;;;;;;6.55;6.05;;;;;;;16.34;84.85;102469.00;4966617;28;20059;-82
2023/06/24 01:30:23;;;;;;;7.88;5.88;;;;;;;16.34;84.25;102466.31;4977584;28;20051;-81
2023/06/24 01:33:14;;;;;;;6.22;5.72;;;;;;;16.31;84.77;102461.06;4977574;28;20504;-81
2023/06/24 01:35:43;;;;;;;6.43;5.70;;;;;;;16.27;85.81;102450.44;4993914;28;20039;-81
2023/06/24 01:38:22;;;;;;;5.85;5.35;;;;;;;16.23;85.87;102468.63;4977524;28;20065;-81
2023/06/24 01:40:51;;;;;;;6.30;5.82;;;;;;;16.18;86.32;102465.72;4995219;28;20049;-80
2023/06/24 01:43:21;;;;;;;6.25;5.75;;;;;;;16.07;86.74;102468.03;4995007;28;20059;-82
2023/06/24 01:45:54;;;;;;;6.28;5.65;;;;;;;15.98;87.04;102466.03;4977259;28;20042;-82
2023/06/24 01:48:34;;;;;;;6.18;5.57;;;;;;;15.96;86.39;102469.16;4993671;28;20070;-81
2023/06/24 01:51:06;;;;;;;5.78;5.13;;;;;;;15.98;86.61;102471.41;4993507;28;20126;-81
2023/06/24 01:53:38;;;;;;;6.10;5.47;;;;;;;15.98;85.71;102471.41;4976791;28;20055;-81
2023/06/24 01:56:07;;;;;;;6.82;6.15;;;;;;;15.95;87.10;102461.53;4977489;28;20051;-82
2023/06/24 01:58:35;;;;;;;5.63;5.07;;;;;;;15.91;86.63;102463.59;4994099;28;20131;-82
2023/06/24 02:01:04;;;;;;;6.18;5.68;;;;;;;15.91;87.51;102461.66;4993529;28;20496;-81
2023/06/24 02:03:32;;;;;;;5.95;5.45;;;;;;;15.91;86.83;102460.91;4993655;28;20512;-81
2023/06/24 02:06:01;;;;;;;7.03;6.07;;;;;;;15.89;87.82;102464.00;4993108;28;20075;-81
2023/06/24 02:08:33;;;;;;;6.70;6.07;;;;;;;15.87;87.65;102455.66;4994106;28;20057;-81
2023/06/24 02:11:01;;;;;;;5.95;5.38;;;;;;;15.83;87.42;102456.94;4993845;28;20049;-81
2023/06/24 02:13:32;;;;;;;5.75;5.45;;;;;;;15.74;88.05;102459.53;4994030;28;20043;-81
2023/06/24 02:16:00;;;;;;;7.07;5.80;;;;;;;15.73;87.56;102461.47;4977513;28;20110;-81
2023/06/24 02:18:27;;;;;;;8.27;5.88;;;;;;;15.68;88.42;102454.72;4993590;28;20504;-80
2023/06/24 02:20:56;;;;;;;9.70;5.75;;;;;;;15.65;88.26;102449.47;4976796;28;20496;-80
2023/06/24 02:23:23;;;;;;;7.05;6.45;;;;;;;15.60;88.56;102442.69;4993426;28;20507;-79
2023/06/24 02:25:51;;;;;;;6.80;6.18;;;;;;;15.58;88.34;102444.34;4994376;28;20108;-80
2023/06/24 02:28:18;;;;;;;8.02;6.72;;;;;;;15.56;88.81;102444.78;4994590;28;20051;-80
2023/06/24 02:30:46;;;;;;;6.35;5.90;;;;;;;15.55;88.75;102447.88;4976596;28;20499;-81
2023/06/24 02:33:14;;;;;;;7.18;6.60;;;;;;;15.53;88.46;102442.19;4976157;28;20050;-80
2023/06/24 02:35:45;;;;;;;11.23;6.88;;;;;;;15.49;88.01;102442.28;4992116;28;20047;-81
2023/06/24 02:38:12;;;;;;;6.45;5.95;;;;;;;15.41;88.49;102440.25;4994155;28;20126;-81
2023/06/24 02:40:39;;;;;;;6.45;5.85;;;;;;;15.40;89.30;102439.50;4993872;28;20053;-81
2023/06/24 02:43:05;;;;;;;6.88;6.28;;;;;;;15.39;89.18;102427.28;4976499;28;20051;-81
2023/06/24 02:45:32;;;;;;;7.18;6.45;;;;;;;15.38;88.82;102435.75;4959898;28;20522;-81
2023/06/24 02:48:00;;;;;;;7.22;6.72;;;;;;;15.34;89.19;102428.56;4993656;28;20082;-81
2023/06/24 02:50:27;;;;;;;7.05;6.35;;;;;;;15.30;89.50;102440.59;4991688;28;20043;-80
2023/06/24 02:52:55;;;;;;;7.80;6.40;;;;;;;15.28;89.46;102440.25;4993893;28;20053;-81
2023/06/24 02:55:27;;;;;;;6.47;5.97;;;;;;;15.22;89.88;102440.03;4991944;28;20483;-80
2023/06/24 02:57:59;;;;;;;6.90;6.15;;;;;;;15.17;90.00;102437.19;4992567;28;20055;-80
2023/06/24 03:00:49;;;;;;;7.32;6.40;;;;;;;15.14;89.87;102441.47;4991982;28;20055;-80
2023/06/24 03:03:31;;;;;;;6.25;5.75;;;;;;;15.11;90.18;102436.97;4975532;28;20511;-80
2023/06/24 03:06:02;;;;;;;7.22;6.63;;;;;;;15.10;89.60;102440.81;4992395;28;20055;-80
2023/06/24 03:08:30;;;;;;;10.45;6.78;;;;;;;15.07;89.56;102435.56;4991974;28;20057;-80
2023/06/24 03:10:58;;;;;;;7.43;6.78;;;;;;;15.01;89.78;102428.06;4993545;28;20054;-80
2023/06/24 03:13:27;;;;;;;7.60;6.93;;;;;;;14.98;91.08;102431.59;4991788;28;20055;-79
2023/06/24 03:16:15;;;;;;;7.82;7.13;;;;;;;14.93;90.97;102429.44;4991668;28;20051;-80
2023/06/24 03:18:50;;;;;;;7.35;6.65;;;;;;;14.93;90.62;102432.13;4976081;28;20118;-80
2023/06/24 03:21:18;;;;;;;9.45;6.75;;;;;;;14.91;90.93;102437.16;4992183;28;20055;-80
2023/06/24 03:23:45;;;;;;;7.88;7.18;;;;;;;14.87;91.17;102433.06;4991808;28;20062;-80
2023/06/24 03:26:14;;;;;;;7.82;7.22;;;;;;;14.87;91.08;102435.75;4975575;28;20122;-80
2023/06/24 03:28:42;;;;;;;8.05;7.25;;;;;;;14.87;91.81;102435.75;4975102;28;20507;-80
2023/06/24 03:31:15;;;;;;;7.43;6.82;;;;;;;14.84;91.49;102442.72;4991228;28;20047;-81
2023/06/24 03:33:44;;;;;;;7.60;6.97;;;;;;;14.83;91.16;102443.91;4974135;28;20137;-80
2023/06/24 03:36:12;;;;;;;7.22;6.63;;;;;;;14.79;91.47;102445.97;4976022;28;20051;-80
2023/06/24 03:38:40;;;;;;;7.85;7.15;;;;;;;14.79;91.47;102451.31;4975222;28;20077;-81
2023/06/24 03:41:07;;;;;;;12.52;7.28;;;;;;;14.78;91.16;102443.72;4959793;28;20050;-80
2023/06/24 03:43:33;;;;;;;8.15;6.47;;;;;;;14.77;91.02;102442.97;4991379;28;20436;-81
2023/06/24 03:46:00;;;;;;;7.05;6.50;;;;;;;14.76;91.14;102438.78;4991280;28;20047;-81
2023/06/24 03:48:27;;;;;;;7.50;6.80;;;;;;;14.77;91.19;102439.53;4975182;28;20070;-81
2023/06/24 03:50:54;;;;;;;7.20;6.57;;;;;;;14.78;91.86;102443.72;4975437;28;20047;-81
2023/06/24 03:53:21;;;;;;;6.78;6.18;;;;;;;14.77;91.88;102442.19;4974984;28;20057;-81
2023/06/24 03:55:48;;;;;;;7.25;6.57;;;;;;;14.78;91.21;102435.66;4993345;28;20049;-79
2023/06/24 03:58:16;;;;;;;7.18;6.57;;;;;;;14.76;91.43;102443.38;4975461;28;20055;-79
2023/06/24 04:00:44;;;;;;;12.15;7.18;;;;;;;14.74;91.26;102437.69;4990669;28;20058;-80
2023/06/24 04:03:10;;;;;;;6.97;6.28;;;;;;;14.73;91.79;102434.25;4959380;28;20050;-80
2023/06/24 04:05:38;;;;;;;7.47;6.88;;;;;;;14.73;91.27;102441.56;4991107;28;20057;-80
2023/06/24 04:08:06;;;;;;;7.47;6.85;;;;;;;14.71;91.48;102444.66;4993041;28;20051;-80
2023/06/24 04:10:33;;;;;;;7.32;6.72;;;;;;;14.70;91.59;102445.09;4990871;28;20054;-79
2023/06/24 04:12:59;;;;;;;7.53;6.93;;;;;;;14.71;92.08;102446.59;4992805;28;20069;-80
2023/06/24 04:15:26;;;;;;;7.60;7.00;;;;;;;14.76;91.60;102444.13;4974906;28;20106;-80
2023/06/24 04:17:53;;;;;;;7.72;7.13;;;;;;;14.81;92.29;102453.56;4991318;28;20082;-81
2023/06/24 04:20:21;;;;;;;7.72;7.05;;;;;;;14.87;92.24;102463.31;4990876;28;20047;-80
2023/06/24 04:22:50;;;;;;;10.27;7.38;;;;;;;14.94;92.32;102465.03;4974924;28;20492;-80
2023/06/24 04:25:17;;;;;;;8.70;7.80;;;;;;;15.02;92.17;102463.66;4991491;28;20094;-80
2023/06/24 04:27:44;;;;;;;8.57;7.40;;;;;;;15.05;92.83;102457.44;4990636;28;20619;-80
2023/06/24 04:30:12;;;;;;;7.35;6.72;;;;;;;15.10;92.09;102464.22;4991041;28;20057;-80
2023/06/24 04:32:38;;;;;;;7.82;7.13;;;;;;;15.16;92.43;102459.81;4991925;28;20043;-80
2023/06/24 04:35:05;;;;;;;9.23;7.75;;;;;;;15.24;92.64;102456.47;4991054;28;20106;-80
2023/06/24 04:37:33;;;;;;;8.70;7.97;;;;;;;15.30;92.00;102456.69;4990360;28;20055;-80
2023/06/24 04:40:00;;;;;;;9.05;8.15;;;;;;;15.38;92.29;102449.91;4991070;28;20051;-80
2023/06/24 04:42:27;;;;;;;9.07;8.15;;;;;;;15.59;92.11;102451.97;4991399;28;20127;-80
2023/06/24 04:44:53;;;;;;;9.00;8.18;;;;;;;15.66;91.23;102454.41;4993342;28;20043;-80
2023/06/24 04:47:20;;;;;;;8.98;8.05;;;;;;;15.77;90.40;102454.06;4977521;28;20556;-80
2023/06/24 04:49:46;;;;;;;8.98;8.05;;;;;;;16.03;89.53;102457.41;4996023;28;20047;-79
2023/06/24 04:52:13;;;;;;;10.43;8.18;;;;;;;17.10;85.46;102457.00;4994334;28;20106;-80
2023/06/24 04:54:40;;;;;;;8.38;7.68;;;;;;;17.89;81.28;102465.41;4995189;28;20051;-80
2023/06/24 04:57:23;;;;;;;8.77;7.53;;;;;;;19.20;76.81;102456.84;4978056;28;20114;-80
2023/06/24 04:59:50;;;;;;;7.43;6.82;;;;;;;20.35;69.43;102455.41;4995574;28;20046;-79
2023/06/24 05:02:16;;;;;;;7.82;7.03;;;;;;;22.37;62.31;102464.91;4994285;28;20079;-79
2023/06/24 05:04:43;;;;;;;7.93;6.95;;;;;;;23.80;56.67;102470.19;4995222;28;20053;-79
2023/06/24 05:07:10;;;;;;;8.20;6.80;;;;;;;25.08;53.28;102478.38;4977691;28;20062;-80
2023/06/24 05:09:37;;;;;;;8.07;7.38;;;;;;;26.32;48.60;102481.22;4994328;28;20055;-80
2023/06/24 05:12:05;;;;;;;11.55;7.13;;;;;;;26.42;47.48;102485.09;4995079;28;20049;-80
2023/06/24 05:14:34;;;;;;;8.02;7.03;;;;;;;25.90;48.20;102488.69;4995009;28;20039;-80
2023/06/24 05:17:01;;;;;;;6.97;6.38;;;;;;;24.30;51.44;102478.44;4995204;28;20500;-80
2023/06/24 05:19:28;;;;;;;9.15;6.38;;;;;;;23.48;54.12;102478.47;4994750;28;20049;-80
2023/06/24 05:21:55;;;;;;;6.85;6.38;;;;;;;24.27;53.30;102477.44;4995282;28;20159;-80
2023/06/24 05:24:21;;;;;;;6.43;5.93;;;;;;;25.71;49.50;102476.88;4994738;28;20518;-81
2023/06/24 05:26:49;;;;;;;6.18;5.60;;;;;;;26.62;46.78;102479.22;4976817;28;20055;-81
2023/06/24 05:29:19;;;;;;;6.68;6.18;;;;;;;27.39;44.44;102489.81;4977715;28;20486;-81
2023/06/24 05:31:46;;;;;;;5.53;5.03;;;;;;;27.97;43.27;102479.09;4995034;28;20047;-81
2023/06/24 05:34:13;;;;;;;5.95;5.40;;;;;;;28.27;41.96;102472.66;4993794;28;20540;-81
2023/06/24 05:36:39;;;;;;;6.38;5.88;;;;;;;28.54;42.14;102474.91;4994509;28;20492;-81
2023/06/24 05:39:07;;;;;;;5.28;4.88;;;;;;;28.51;41.57;102477.97;4995225;28;20138;-81
2023/06/24 05:41:35;;;;;;;5.50;4.75;;;;;;;28.36;42.56;102483.22;4994082;28;20082;-81
2023/06/24 05:44:03;;;;;;;4.40;4.10;;;;;;;27.95;42.38;102489.09;4995050;28;20054;-82
2023/06/24 05:46:30;;;;;;;5.20;4.70;;;;;;;27.92;43.03;102488.13;4994219;28;20480;-81
2023/06/24 05:48:57;;;;;;;5.47;4.03;;;;;;;27.75;42.61;102485.63;4995080;28;20503;-81
2023/06/24 05:51:24;;;;;;;4.80;4.43;;;;;;;27.34;43.67;102494.09;4994283;28;20596;-81
2023/06/24 05:53:50;;;;;;;4.10;3.80;;;;;;;27.09;44.64;102492.66;4994783;28;20543;-81
2023/06/24 05:56:17;;;;;;;4.75;4.28;;;;;;;26.84;45.30;102483.69;4994490;28;20051;-81
2023/06/24 05:58:44;;;;;;;3.88;3.58;;;;;;;26.70;45.68;102490.31;4959976;28;20179;-81
2023/06/24 06:01:11;;;;;;;4.22;3.92;;;;;;;26.42;46.15;102490.53;4994861;28;20054;-82
2023/06/24 06:03:37;;;;;;;3.95;3.60;;;;;;;26.17;46.62;102495.94;4992964;28;20056;-80
2023/06/24 06:06:04;;;;;;;4.60;3.95;;;;;;;26.02;46.21;102497.53;4993271;28;20043;-76
2023/06/24 06:08:31;;;;;;;6.15;3.92;;;;;;;25.89;47.53;102493.41;4993122;28;20106;-78
2023/06/24 06:10:57;;;;;;;3.97;3.67;;;;;;;25.49;47.77;102494.81;4975587;28;20459;-77
2023/06/24 06:13:24;;;;;;;4.82;3.80;;;;;;;25.28;48.56;102490.94;4994893;28;20047;-76
2023/06/24 06:15:50;;;;;;;4.28;3.92;;;;;;;25.27;48.93;102490.19;4994866;28;20492;-76
2023/06/24 06:18:17;;;;;;;4.70;3.85;;;;;;;25.14;49.70;102481.09;4995143;28;20122;-78
2023/06/24 06:20:43;;;;;;;4.32;4.03;;;;;;;25.01;49.20;102494.47;4995084;28;20047;-77
2023/06/24 06:23:10;;;;;;;3.95;3.58;;;;;;;24.89;50.42;102489.03;4995042;28;20051;-77
2023/06/24 06:25:39;;;;;;;5.32;3.58;;;;;;;24.76;50.31;102486.09;4994328;28;20081;-77
2023/06/24 06:28:06;;;;;;;3.95;3.70;;;;;;;24.59;51.28;102490.81;4994643;28;20073;-78
2023/06/24 06:30:32;;;;;;;4.35;3.92;;;;;;;24.54;51.00;102499.72;4994714;28;20125;-78
2023/06/24 06:32:59;;;;;;;4.22;3.75;;;;;;;24.60;51.04;102493.03;4994773;28;20043;-78
2023/06/24 06:35:26;;;;;;;4.70;4.18;;;;;;;24.32;51.44;102492.31;4994222;28;20385;-78
2023/06/24 06:37:54;;;;;;;3.63;3.33;;;;;;;24.34;51.96;102489.09;4994428;28;20047;-78
2023/06/24 06:40:23;;;;;;;4.90;3.83;;;;;;;24.29;51.61;102484.38;4994753;28;20051;-77
2023/06/24 06:42:50;;;;;;;4.20;3.15;;;;;;;24.34;52.87;102481.66;4994712;28;20488;-77
2023/06/24 06:45:16;;;;;;;3.80;3.50;;;;;;;24.37;51.54;102483.41;4994655;28;20051;-76
2023/06/24 06:47:44;;;;;;;13.77;4.45;;;;;;;24.25;51.41;102498.22;4994430;28;20050;-78
2023/06/24 06:50:11;;;;;;;4.88;3.22;;;;;;;24.37;51.67;102491.56;4994130;28;20047;-76
2023/06/24 06:52:38;;;;;;;3.83;3.53;;;;;;;24.32;52.28;102491.56;4993720;28;20051;-76
2023/06/24 06:55:05;;;;;;;3.88;3.38;;;;;;;24.34;51.48;102494.53;4994536;28;20523;-78
2023/06/24 06:57:32;;;;;;;5.55;3.08;;;;;;;24.37;51.40;102490.81;4994238;28;20046;-77
2023/06/24 06:59:58;;;;;;;3.80;3.60;;;;;;;24.35;51.54;102485.13;4993854;28;20540;-77
2023/06/24 07:02:25;;;;;;;3.45;3.25;;;;;;;24.52;52.43;102488.56;4993806;28;20051;-77
2023/06/24 07:04:51;;;;;;;5.72;3.22;;;;;;;24.63;52.35;102488.56;4993911;28;20078;-77
2023/06/24 07:07:18;;;;;;;4.65;3.78;;;;;;;24.47;51.16;102489.31;4993557;28;20074;-78
2023/06/24 07:09:46;;;;;;;3.35;3.05;;;;;;;24.56;51.64;102492.53;4992646;28;20055;-77
2023/06/24 07:12:13;;;;;;;3.70;3.40;;;;;;;24.64;51.19;102490.06;4994164;28;20099;-77
2023/06/24 07:14:39;;;;;;;4.10;3.22;;;;;;;24.62;50.48;102492.53;4993728;28;20043;-78
2023/06/24 07:17:07;;;;;;;3.10;2.90;;;;;;;24.76;50.90;102488.81;4993626;28;20181;-78
2023/06/24 07:19:33;;;;;;;3.55;2.95;;;;;;;24.86;51.51;102484.56;4992971;28;20047;-79
2023/06/24 07:22:00;;;;;;;5.57;3.28;;;;;;;25.02;51.10;102495.97;4993510;28;20534;-79
2023/06/24 07:24:27;;;;;;;3.53;3.22;;;;;;;25.10;49.29;102486.78;4993696;28;20084;-78
2023/06/24 07:26:53;;;;;;;3.47;3.28;;;;;;;25.15;50.04;102498.91;4993899;28;20043;-78
2023/06/24 07:29:20;;;;;;;6.25;3.30;;;;;;;25.31;49.11;102495.38;4993951;28;20133;-78
2023/06/24 07:31:47;;;;;;;3.40;3.17;;;;;;;25.41;49.09;102495.84;4975896;28;20050;-79
2023/06/24 07:34:14;;;;;;;3.20;2.88;;;;;;;25.49;47.49;102500.28;4993906;28;20130;-78
2023/06/24 07:36:40;;;;;;;4.53;2.72;;;;;;;25.61;48.76;102492.75;4993094;28;20420;-79
2023/06/24 07:39:07;;;;;;;4.82;3.38;;;;;;;25.80;48.37;102495.69;4992254;28;20086;-79
2023/06/24 07:41:33;;;;;;;12.50;3.30;;;;;;;25.98;47.76;102494.34;4993569;28;20042;-78
2023/06/24 07:44:00;;;;;;;3.45;3.25;;;;;;;26.10;46.74;102493.00;4993719;28;20039;-80
2023/06/24 07:46:27;;;;;;;9.23;3.50;;;;;;;26.20;46.70;102492.19;4992798;28;20130;-80
2023/06/24 07:48:54;;;;;;;4.15;3.30;;;;;;;26.10;46.40;102491.00;4993358;28;20051;-80
2023/06/24 07:51:21;;;;;;;3.30;3.10;;;;;;;26.09;46.22;102489.53;4991850;28;20522;-80
2023/06/24 07:53:47;;;;;;;3.67;3.40;;;;;;;26.24;47.37;102484.47;4992964;28;20042;-80
2023/06/24 07:56:14;;;;;;;6.18;3.00;;;;;;;26.42;45.96;102493.28;4975649;28;20046;-80
2023/06/24 07:58:40;;;;;;;3.28;3.05;;;;;;;26.40;45.70;102482.88;4992894;28;20471;-80
2023/06/24 08:01:07;;;;;;;3.30;3.10;;;;;;;26.60;44.88;102487.16;4993595;28;20049;-80
2023/06/24 08:03:34;;;;;;;3.10;2.90;;;;;;;26.78;45.19;102491.97;4993166;28;20043;-80
2023/06/24 08:06:01;;;;;;;4.55;3.53;;;;;;;26.96;45.29;102490.56;4992689;28;20125;-80
2023/06/24 08:08:27;;;;;;;3.17;2.97;;;;;;;26.91;44.44;102485.88;4993171;28;20498;-81
2023/06/24 08:10:54;;;;;;;2.88;2.67;;;;;;;27.02;43.63;102488.50;4992975;28;20055;-81
2023/06/24 08:13:21;;;;;;;4.82;3.20;;;;;;;27.07;43.30;102484.25;4973156;28;20468;-83
2023/06/24 08:15:47;;;;;;;4.75;2.80;;;;;;;27.22;43.86;102482.53;4973914;28;20062;-84
2023/06/24 08:18:14;;;;;;;4.85;3.10;;;;;;;27.42;43.50;102484.06;4974599;28;20158;-82
2023/06/24 08:20:41;;;;;;;3.92;3.40;;;;;;;27.40;44.08;102477.63;4991882;28;20070;-83
2023/06/24 08:23:09;;;;;;;3.42;3.05;;;;;;;27.45;43.45;102488.50;4975284;28;20050;-82
2023/06/24 08:25:36;;;;;;;3.08;2.78;;;;;;;27.53;42.57;102474.97;4992884;28;20051;-82
2023/06/24 08:28:03;;;;;;;3.50;3.20;;;;;;;27.61;42.24;102480.59;4992829;28;20055;-82
2023/06/24 08:30:29;;;;;;;2.92;2.80;;;;;;;27.69;42.96;102479.47;4992829;28;20051;-82
2023/06/24 08:32:56;;;;;;;4.97;3.00;;;;;;;27.65;42.90;102481.03;4992845;28;20047;-79
2023/06/24 08:35:22;;;;;;;3.58;2.92;;;;;;;27.60;42.26;102479.84;4992407;28;20039;-81
2023/06/24 08:37:49;;;;;;;3.65;3.35;;;;;;;27.42;42.56;102480.56;4992740;28;20054;-81
2023/06/24 08:40:17;;;;;;;5.90;3.10;;;;;;;27.52;43.78;102485.16;4975229;28;20047;-80
2023/06/24 08:42:45;;;;;;;4.50;3.00;;;;;;;27.73;42.45;102479.94;4974886;28;20483;-78
2023/06/24 08:45:12;;;;;;;5.43;3.78;;;;;;;27.86;42.48;102479.25;4993052;28;20106;-79
2023/06/24 08:47:40;;;;;;;6.15;3.40;;;;;;;28.10;43.34;102476.38;4992612;28;20057;-81
2023/06/24 08:50:13;;;;;;;3.58;3.20;;;;;;;28.02;41.34;102482.97;4992512;28;20046;-81
2023/06/24 08:52:44;;;;;;;5.95;3.08;;;;;;;27.74;41.90;102480.66;4992451;28;20515;-81
2023/06/24 08:55:16;;;;;;;3.55;3.25;;;;;;;27.75;42.75;102474.69;4992703;28;20572;-80
2023/06/24 08:57:43;;;;;;;3.28;3.08;;;;;;;27.74;42.35;102472.47;4975214;28;20496;-81
2023/06/24 09:00:10;;;;;;;3.58;3.33;;;;;;;28.05;43.01;102474.47;4992928;28;20046;-81
2023/06/24 09:02:38;;;;;;;3.42;3.22;;;;;;;28.08;42.35;102473.44;4992165;28;20559;-81
2023/06/24 09:05:06;;;;;;;3.38;3.17;;;;;;;28.23;42.47;102472.25;4990512;28;20058;-81
2023/06/24 09:07:33;;;;;;;3.28;3.13;;;;;;;28.17;42.55;102475.78;4992552;28;20120;-81
2023/06/24 09:10:00;;;;;;;6.57;3.40;;;;;;;28.30;42.13;102475.09;4992154;28;20464;-80
2023/06/24 09:12:27;;;;;;;4.38;3.83;;;;;;;28.36;42.59;102480.50;4974639;28;20047;-80
2023/06/24 09:14:53;;;;;;;3.47;3.28;;;;;;;28.60;41.69;102476.81;4992451;28;20079;-80
2023/06/24 09:17:22;;;;;;;5.82;3.30;;;;;;;28.94;41.02;102461.25;4974263;28;20061;-81
2023/06/24 09:19:50;;;;;;;3.92;3.67;;;;;;;28.97;40.57;102468.41;4992546;28;20155;-87
2023/06/24 09:22:18;;;;;;;4.80;3.42;;;;;;;28.98;41.82;102467.16;4991126;28;20058;-81
2023/06/24 09:24:46;;;;;;;3.47;3.28;;;;;;;29.19;40.25;102467.25;4991840;28;20419;-78
2023/06/24 09:27:14;;;;;;;4.10;3.10;;;;;;;29.27;41.17;102464.56;4991112;28;20507;-77
2023/06/24 09:29:42;;;;;;;3.95;3.58;;;;;;;29.40;39.98;102459.81;4991322;28;20126;-78
2023/06/24 09:32:10;;;;;;;5.20;3.70;;;;;;;29.37;40.46;102463.59;4992581;28;20063;-77
2023/06/24 09:34:37;;;;;;;7.85;3.90;;;;;;;29.45;39.51;102461.72;4994932;28;20047;-78
2023/06/24 09:37:05;;;;;;;4.15;3.85;;;;;;;29.34;40.50;102459.19;4995477;28;20105;-78
2023/06/24 09:39:40;;;;;;;3.92;3.53;;;;;;;29.70;39.27;102453.91;4995419;28;20100;-78
2023/06/24 09:42:07;;;;;;;3.67;3.47;;;;;;;29.86;39.40;102452.06;4995389;28;20416;-82
2023/06/24 09:44:34;;;;;;;5.80;4.03;;;;;;;29.85;38.65;102459.56;4993879;28;20137;-82
2023/06/24 09:47:01;;;;;;;6.30;3.78;;;;;;;29.89;39.17;102461.22;4994781;28;20057;-80
2023/06/24 09:49:29;;;;;;;3.65;3.45;;;;;;;29.81;38.83;102461.91;4994939;28;20042;-81
2023/06/24 09:51:57;;;;;;;8.30;3.88;;;;;;;29.80;38.48;102454.19;4995274;28;20483;-81
2023/06/24 09:54:28;;;;;;;4.43;4.10;;;;;;;29.99;37.91;102459.50;4993763;28;20050;-82
2023/06/24 09:57:02;;;;;;;5.60;3.53;;;;;;;30.12;38.37;102445.72;4977667;28;20133;-82
2023/06/24 09:59:30;;;;;;;4.35;3.58;;;;;;;30.30;39.43;102444.00;4995015;28;20081;-82
2023/06/24 10:01:57;;;;;;;3.65;3.35;;;;;;;30.25;39.04;102437.38;4994603;28;20531;-84
2023/06/24 10:04:26;;;;;;;6.43;3.88;;;;;;;30.32;38.52;102441.47;4994991;28;20057;-81
2023/06/24 10:06:54;;;;;;;4.20;3.80;;;;;;;30.54;38.26;102438.13;4995106;28;20039;-83
2023/06/24 10:09:20;;;;;;;3.92;3.58;;;;;;;30.82;38.00;102440.13;4994547;28;20055;-85
2023/06/24 10:11:47;;;;;;;4.10;3.67;;;;;;;30.92;37.98;102443.09;4994772;28;20102;-82
2023/06/24 10:14:15;;;;;;;5.75;3.47;;;;;;;31.15;35.85;102433.69;4995039;28;20555;-84
2023/06/24 10:16:42;;;;;;;4.05;3.75;;;;;;;30.86;36.49;102435.00;4994502;28;20523;-81
2023/06/24 10:19:09;;;;;;;6.13;4.00;;;;;;;30.69;36.60;102440.25;4995113;28;20496;-78
2023/06/24 10:21:45;;;;;;;4.10;3.70;;;;;;;30.72;37.15;102439.19;4994805;28;20117;-78
2023/06/24 10:24:12;;;;;;;4.38;3.97;;;;;;;30.83;37.29;102436.81;4995108;28;20053;-78
2023/06/24 10:26:40;;;;;;;4.40;3.95;;;;;;;31.01;37.07;102434.34;4994719;28;20531;-82
2023/06/24 10:29:06;;;;;;;5.30;4.10;;;;;;;31.06;36.24;102428.69;4994447;28;20053;-78
2023/06/24 10:31:52;;;;;;;4.60;4.15;;;;;;;31.26;37.50;102423.63;4994313;28;20043;-78
2023/06/24 10:34:18;;;;;;;4.95;4.20;;;;;;;31.15;36.27;102424.72;4994679;28;20043;-78
2023/06/24 10:37:09;;;;;;;4.55;4.15;;;;;;;31.24;37.27;102423.44;4977253;28;20047;-79
2023/06/24 10:39:56;;;;;;;5.13;4.60;;;;;;;31.63;35.71;102428.47;4994407;28;20047;-78
2023/06/24 10:42:28;;;;;;;4.43;3.65;;;;;;;31.57;36.67;102432.69;4976952;28;20387;-76
2023/06/24 10:45:00;;;;;;;3.75;3.55;;;;;;;30.95;35.85;102431.75;4994074;28;20039;-80
2023/06/24 10:47:28;;;;;;;4.40;4.10;;;;;;;31.15;35.28;102419.94;4976721;28;20500;-78
2023/06/24 10:49:55;;;;;;;3.78;3.55;;;;;;;31.33;35.56;102420.91;4994364;28;20130;-78
2023/06/24 10:52:23;;;;;;;4.63;4.10;;;;;;;31.03;35.46;102421.53;4994128;28;20046;-88
2023/06/24 10:54:51;;;;;;;4.25;3.83;;;;;;;31.25;36.97;102411.16;4994455;28;20624;-79
2023/06/24 10:57:23;;;;;;;7.30;4.50;;;;;;;30.99;36.51;102412.16;4994266;28;20082;-79
2023/06/24 10:59:52;;;;;;;4.72;4.40;;;;;;;31.02;36.41;102414.56;4993847;28;20047;-80
2023/06/24 11:02:23;;;;;;;5.55;4.15;;;;;;;30.70;37.29;102414.97;4993807;28;20058;-79
2023/06/24 11:04:54;;;;;;;4.47;4.18;;;;;;;30.32;38.10;102414.00;4994005;28;20053;-79
2023/06/24 11:07:23;;;;;;;6.93;4.60;;;;;;;30.57;37.08;102408.84;4976305;28;20074;-80
2023/06/24 11:09:53;;;;;;;7.20;4.25;;;;;;;31.36;37.06;102406.03;4993707;28;20054;-80
2023/06/24 11:12:28;;;;;;;3.78;3.58;;;;;;;31.83;37.55;102407.59;4976741;28;20042;-81
2023/06/24 11:14:59;;;;;;;5.38;4.80;;;;;;;31.92;36.09;102404.28;4993941;28;20098;-80
2023/06/24 11:17:27;;;;;;;5.60;5.18;;;;;;;31.04;37.48;102401.00;4993758;28;20077;-81
2023/06/24 11:19:54;;;;;;;5.18;4.70;;;;;;;30.79;38.27;102403.44;4994303;28;20078;-83
2023/06/24 11:22:22;;;;;;;6.25;4.40;;;;;;;30.25;39.45;102398.94;4993600;28;20093;-81
2023/06/24 11:24:49;;;;;;;6.95;4.82;;;;;;;29.90;40.18;102405.06;4993808;28;20043;-80
2023/06/24 11:27:16;;;;;;;4.03;3.72;;;;;;;29.74;39.94;102399.44;4993670;28;20479;-80
2023/06/24 11:29:44;;;;;;;4.68;4.28;;;;;;;29.91;40.44;102401.78;4993338;28;20059;-78
2023/06/24 11:32:11;;;;;;;4.95;4.65;;;;;;;30.18;37.99;102400.34;4976088;28;20078;-79